Time;durP1;ratioP1;P1;durP2;ratioP2;P2;SDS_P1;SDS_P2;PMS_P1;PMS_P2;Temp;Humidity;BMP_temperature;BMP_pressure;BME280_temperature;BME280_humidity;BME280_pressure;Samples;Min_cycle;Max_cycle;Signal;HPM_P1;HPM_P2
2022/03/07 00:00:21;;;;;;;;;;;2.10;99.90;;;;;;5072285;28;19925;-62
2022/03/07 00:02:47;;;;;;;;;;;2.00;99.90;;;;;;5071028;28;20043;-62
2022/03/07 00:05:15;;;;;;;;;;;2.20;99.90;;;;;;5071494;28;19928;-62
2022/03/07 00:07:41;;;;;;;;;;;2.00;99.90;;;;;;5072223;28;19929;-62
2022/03/07 00:10:07;;;;;;;;;;;1.90;99.90;;;;;;5071830;28;19970;-62
2022/03/07 00:12:32;;;;;;;;;;;1.90;99.90;;;;;;5072155;28;19931;-61
2022/03/07 00:14:58;;;;;;;;;;;1.80;99.90;;;;;;5071603;28;19925;-62
2022/03/07 00:17:23;;;;;;;;;;;1.80;99.90;;;;;;5071201;28;19987;-62
2022/03/07 00:19:49;;;;;;;;;;;1.80;99.90;;;;;;5072059;28;19925;-63
2022/03/07 00:22:14;;;;;;;;;;;1.80;99.90;;;;;;5071679;28;19929;-63
2022/03/07 00:24:40;;;;;;;;;;;1.70;99.90;;;;;;5070818;28;19924;-62
2022/03/07 00:27:06;;;;;;;;;;;1.70;99.90;;;;;;5087580;28;19924;-61
2022/03/07 00:29:32;;;;;;;;;;;1.90;99.90;;;;;;5071826;28;20263;-61
2022/03/07 00:31:57;;;;;;;;;;;1.70;99.90;;;;;;5071559;28;19924;-64
2022/03/07 00:34:23;;;;;;;;;;;2.00;99.90;;;;;;5071655;28;19978;-62
2022/03/07 00:36:48;;;;;;;;;;;1.80;99.90;;;;;;5072145;28;20362;-61
2022/03/07 00:39:14;;;;;;;;;;;1.60;99.90;;;;;;5071175;28;19928;-61
2022/03/07 00:41:40;;;;;;;;;;;1.60;99.90;;;;;;5071713;28;19935;-61
2022/03/07 00:44:05;;;;;;;;;;;1.50;99.90;;;;;;5071326;28;20312;-62
2022/03/07 00:46:31;;;;;;;;;;;1.50;99.90;;;;;;5070600;28;19924;-61
2022/03/07 00:48:56;;;;;;;;;;;1.90;99.90;;;;;;5071722;28;20262;-61
2022/03/07 00:51:23;;;;;;;;;;;1.40;99.90;;;;;;5070549;28;19989;-61
2022/03/07 00:53:49;;;;;;;;;;;1.40;99.90;;;;;;5075691;28;20342;-60
2022/03/07 00:56:15;;;;;;;;;;;1.40;99.90;;;;;;5075071;28;19979;-62
2022/03/07 00:58:40;;;;;;;;;;;1.70;99.90;;;;;;5074741;28;19970;-60
2022/03/07 01:01:06;;;;;;;;;;;2.10;99.90;;;;;;5074362;28;19958;-60
2022/03/07 01:03:31;;;;;;;;;;;1.30;99.90;;;;;;5075240;28;19925;-61
2022/03/07 01:05:57;;;;;;;;;;;1.20;99.90;;;;;;5075513;28;19920;-61
2022/03/07 01:08:23;;;;;;;;;;;1.20;99.90;;;;;;5074628;28;19932;-60
2022/03/07 01:10:48;;;;;;;;;;;1.10;99.90;;;;;;5074174;28;20396;-60
2022/03/07 01:13:14;;;;;;;;;;;1.10;99.90;;;;;;5075063;28;19925;-60
2022/03/07 01:15:39;;;;;;;;;;;1.10;99.90;;;;;;5073749;28;19925;-61
2022/03/07 01:18:05;;;;;;;;;;;1.10;99.90;;;;;;5074841;28;20027;-61
2022/03/07 01:20:31;;;;;;;;;;;1.00;99.90;;;;;;5075160;28;19975;-61
2022/03/07 01:22:57;;;;;;;;;;;1.00;99.90;;;;;;5075058;28;19925;-60
2022/03/07 01:25:22;;;;;;;;;;;1.10;99.90;;;;;;5073565;28;20267;-60
2022/03/07 01:27:48;;;;;;;;;;;1.10;99.90;;;;;;5074939;28;19925;-61
2022/03/07 01:30:14;;;;;;;;;;;1.10;99.90;;;;;;5074692;28;20261;-62
2022/03/07 01:32:39;;;;;;;;;;;1.00;99.90;;;;;;5074989;28;19924;-61
2022/03/07 01:35:05;;;;;;;;;;;1.10;99.90;;;;;;5056770;28;20390;-61
2022/03/07 01:37:31;;;;;;;;;;;1.10;99.90;;;;;;5107326;28;20369;-61
2022/03/07 01:39:57;;;;;;;;;;;1.10;99.90;;;;;;5075136;28;19925;-61
2022/03/07 01:42:22;;;;;;;;;;;1.10;99.90;;;;;;5074809;28;20365;-60
2022/03/07 01:44:48;;;;;;;;;;;1.00;99.90;;;;;;5073308;28;19924;-61
2022/03/07 01:47:13;;;;;;;;;;;1.00;99.90;;;;;;5074079;28;19986;-61
2022/03/07 01:49:39;;;;;;;;;;;1.00;99.90;;;;;;5074746;28;19977;-60
2022/03/07 01:52:06;;;;;;;;;;;1.10;99.90;;;;;;5074643;28;19932;-61
2022/03/07 01:54:31;;;;;;;;;;;1.00;99.90;;;;;;5074135;28;19931;-61
2022/03/07 01:56:57;;;;;;;;;;;1.00;99.90;;;;;;5074697;28;20314;-60
2022/03/07 01:59:24;;;;;;;;;;;0.90;99.90;;;;;;5072972;28;19934;-61
2022/03/07 02:01:50;;;;;;;;;;;1.00;99.90;;;;;;5074474;28;20019;-60
2022/03/07 02:04:16;;;;;;;;;;;0.90;99.90;;;;;;5072668;28;19983;-61
2022/03/07 02:06:41;;;;;;;;;;;0.90;99.90;;;;;;5073230;28;19928;-62
2022/03/07 02:09:08;;;;;;;;;;;0.90;99.90;;;;;;5071953;28;20254;-61
2022/03/07 02:11:34;;;;;;;;;;;0.90;99.90;;;;;;5072739;28;20038;-61
2022/03/07 02:14:16;;;;;;;;;;;1.00;99.90;;;;;;5073058;28;20496;-61
2022/03/07 02:16:42;;;;;;;;;;;0.90;99.90;;;;;;5072095;28;19924;-63
2022/03/07 02:19:08;;;;;;;;;;;0.90;99.90;;;;;;5071975;28;19920;-61
2022/03/07 02:21:34;;;;;;;;;;;0.90;99.90;;;;;;5072613;28;19947;-63
2022/03/07 02:24:00;;;;;;;;;;;0.80;99.90;;;;;;5071916;28;20001;-61
2022/03/07 02:26:26;;;;;;;;;;;0.80;99.90;;;;;;5072460;28;19981;-61
2022/03/07 02:28:51;;;;;;;;;;;0.80;99.90;;;;;;5071854;28;19989;-62
2022/03/07 02:31:18;;;;;;;;;;;0.80;99.90;;;;;;5072654;28;19931;-61
2022/03/07 02:33:44;;;;;;;;;;;0.70;99.90;;;;;;5073153;28;20170;-61
2022/03/07 02:36:09;;;;;;;;;;;0.70;99.90;;;;;;5072730;28;19920;-61
2022/03/07 02:38:35;;;;;;;;;;;0.70;99.90;;;;;;5072286;28;20386;-61
2022/03/07 02:41:01;;;;;;;;;;;0.60;99.90;;;;;;5071292;28;19924;-61
2022/03/07 02:43:27;;;;;;;;;;;0.60;99.90;;;;;;5072410;28;19924;-61
2022/03/07 02:45:52;;;;;;;;;;;0.60;99.90;;;;;;5071309;28;20377;-61
2022/03/07 02:48:18;;;;;;;;;;;0.70;99.90;;;;;;5071921;28;19924;-61
2022/03/07 02:50:47;;;;;;;;;;;0.60;99.90;;;;;;5072199;28;19928;-60
2022/03/07 02:53:13;;;;;;;;;;;0.50;99.90;;;;;;5072473;28;19925;-61
2022/03/07 02:55:39;;;;;;;;;;;0.50;99.90;;;;;;5070841;28;19925;-60
2022/03/07 02:58:04;;;;;;;;;;;0.50;99.90;;;;;;5072325;28;20288;-60
2022/03/07 03:00:30;;;;;;;;;;;0.60;99.90;;;;;;5071926;28;19928;-62
2022/03/07 03:02:56;;;;;;;;;;;0.50;99.90;;;;;;5072219;28;19950;-61
2022/03/07 03:05:21;;;;;;;;;;;0.50;99.90;;;;;;5003200;28;1954107;-61
2022/03/07 03:07:47;;;;;;;;;;;0.50;99.90;;;;;;5072972;28;20326;-60
2022/03/07 03:10:13;;;;;;;;;;;0.50;99.90;;;;;;5073165;28;19925;-62
2022/03/07 03:12:39;;;;;;;;;;;0.50;99.90;;;;;;5072719;28;20192;-61
2022/03/07 03:15:05;;;;;;;;;;;0.60;99.90;;;;;;5070836;28;20267;-60
2022/03/07 03:17:31;;;;;;;;;;;0.50;99.90;;;;;;5071591;28;20315;-61
2022/03/07 03:19:56;;;;;;;;;;;0.70;99.90;;;;;;5072591;28;20027;-61
2022/03/07 03:22:22;;;;;;;;;;;0.50;99.90;;;;;;5072367;28;19939;-61
2022/03/07 03:24:48;;;;;;;;;;;0.50;99.90;;;;;;5072844;28;19972;-61
2022/03/07 03:27:13;;;;;;;;;;;0.40;99.90;;;;;;5071742;28;20416;-61
2022/03/07 03:29:39;;;;;;;;;;;0.40;99.90;;;;;;5071387;28;19925;-60
2022/03/07 03:32:05;;;;;;;;;;;0.50;99.90;;;;;;5071691;28;20021;-61
2022/03/07 03:34:31;;;;;;;;;;;0.40;99.90;;;;;;5070676;28;20305;-61
2022/03/07 03:36:56;;;;;;;;;;;0.70;99.90;;;;;;5072483;28;19935;-61
2022/03/07 03:39:22;;;;;;;;;;;0.40;99.90;;;;;;5072382;28;20382;-60
2022/03/07 03:41:48;;;;;;;;;;;0.40;99.90;;;;;;5072215;28;20486;-62
2022/03/07 03:44:13;;;;;;;;;;;0.40;99.90;;;;;;5072580;28;20376;-60
2022/03/07 03:46:39;;;;;;;;;;;0.40;99.90;;;;;;5071901;28;19924;-60
2022/03/07 03:49:05;;;;;;;;;;;0.40;99.90;;;;;;5070972;28;19932;-61
2022/03/07 03:51:31;;;;;;;;;;;0.40;99.90;;;;;;5070969;28;20296;-62
2022/03/07 03:53:57;;;;;;;;;;;0.30;99.90;;;;;;5072175;28;20023;-61
2022/03/07 03:56:23;;;;;;;;;;;0.30;99.90;;;;;;5071012;28;20365;-61
2022/03/07 03:58:48;;;;;;;;;;;0.20;99.90;;;;;;5071829;28;20028;-60
2022/03/07 04:01:14;;;;;;;;;;;0.20;99.90;;;;;;5071916;28;19946;-62
2022/03/07 04:03:39;;;;;;;;;;;0.20;99.90;;;;;;5070161;28;20011;-61
2022/03/07 04:06:06;;;;;;;;;;;0.20;99.90;;;;;;5071095;28;19936;-61
2022/03/07 04:08:41;;;;;;;;;;;0.20;99.90;;;;;;5071704;28;19924;-63
2022/03/07 04:11:07;;;;;;;;;;;0.20;99.90;;;;;;5072187;28;20148;-63
2022/03/07 04:13:32;;;;;;;;;;;0.10;99.90;;;;;;5070419;28;19924;-60
2022/03/07 04:15:58;;;;;;;;;;;0.10;99.90;;;;;;5070693;28;20406;-61
2022/03/07 04:18:27;;;;;;;;;;;0.10;99.90;;;;;;5071953;28;19985;-61
2022/03/07 04:20:52;;;;;;;;;;;0.00;99.90;;;;;;5071627;28;19924;-62
2022/03/07 04:23:20;;;;;;;;;;;0.00;99.90;;;;;;5070787;28;19930;-61
2022/03/07 04:25:48;;;;;;;;;;;0.00;99.90;;;;;;5070523;28;19929;-61
2022/03/07 04:28:13;;;;;;;;;;;0.00;99.90;;;;;;5071541;28;20439;-61
2022/03/07 04:30:39;;;;;;;;;;;-0.10;99.90;;;;;;5071607;28;19924;-61
2022/03/07 04:33:05;;;;;;;;;;;-0.10;99.90;;;;;;5071864;28;19920;-62
2022/03/07 04:35:30;;;;;;;;;;;-0.10;99.90;;;;;;5071104;28;19932;-64
2022/03/07 04:37:56;;;;;;;;;;;-0.10;99.90;;;;;;5071509;28;20300;-62
2022/03/07 04:40:22;;;;;;;;;;;-0.20;99.90;;;;;;5070764;28;20064;-62
2022/03/07 04:42:47;;;;;;;;;;;-0.20;99.90;;;;;;5071448;28;20026;-63
2022/03/07 04:45:13;;;;;;;;;;;0.00;99.90;;;;;;5070637;28;19932;-63
2022/03/07 04:47:40;;;;;;;;;;;-0.20;99.90;;;;;;5070378;28;19931;-62
2022/03/07 04:50:06;;;;;;;;;;;-0.20;99.90;;;;;;5071623;28;20015;-61
2022/03/07 04:52:32;;;;;;;;;;;-0.20;99.90;;;;;;5071594;28;19925;-61
2022/03/07 04:54:58;;;;;;;;;;;-0.30;99.90;;;;;;5071493;28;20028;-62
2022/03/07 04:57:23;;;;;;;;;;;-0.30;99.90;;;;;;5070421;28;20395;-60
2022/03/07 04:59:49;;;;;;;;;;;-0.30;99.90;;;;;;5071483;28;20068;-61
2022/03/07 05:02:14;;;;;;;;;;;-0.30;99.90;;;;;;5071529;28;20014;-61
2022/03/07 05:04:40;;;;;;;;;;;-0.30;99.90;;;;;;5069369;28;20290;-61
2022/03/07 05:07:06;;;;;;;;;;;-0.30;99.90;;;;;;5070289;28;20366;-61
2022/03/07 05:09:32;;;;;;;;;;;-0.30;99.90;;;;;;5071389;28;19924;-61
2022/03/07 05:11:58;;;;;;;;;;;0.00;99.90;;;;;;5070116;28;19921;-61
2022/03/07 05:14:23;;;;;;;;;;;-0.30;99.90;;;;;;5070168;28;19927;-60
2022/03/07 05:16:49;;;;;;;;;;;-0.30;99.90;;;;;;5071160;28;20019;-61
2022/03/07 05:19:14;;;;;;;;;;;-0.40;99.90;;;;;;5071290;28;20336;-60
2022/03/07 05:21:40;;;;;;;;;;;-0.30;99.90;;;;;;5070963;28;19928;-62
2022/03/07 05:24:06;;;;;;;;;;;-0.40;99.90;;;;;;5071280;28;19928;-61
2022/03/07 05:26:32;;;;;;;;;;;-0.40;99.90;;;;;;5071252;28;19925;-60
2022/03/07 05:28:57;;;;;;;;;;;-0.40;99.90;;;;;;5070394;28;19972;-60
2022/03/07 05:31:23;;;;;;;;;;;-0.40;99.90;;;;;;5071098;28;20164;-61
2022/03/07 05:33:48;;;;;;;;;;;-0.40;99.90;;;;;;5070717;28;20262;-60
2022/03/07 05:36:14;;;;;;;;;;;-0.40;99.90;;;;;;5070206;28;20365;-61
2022/03/07 05:38:39;;;;;;;;;;;-0.40;99.90;;;;;;5072110;28;20296;-61
2022/03/07 05:41:05;;;;;;;;;;;-0.40;99.90;;;;;;5074748;28;19928;-61
2022/03/07 05:43:31;;;;;;;;;;;-0.50;99.90;;;;;;5073922;28;20254;-60
2022/03/07 05:45:56;;;;;;;;;;;-0.50;99.90;;;;;;5074474;28;19925;-61
2022/03/07 05:48:22;;;;;;;;;;;-0.40;99.90;;;;;;5074598;28;19925;-60
2022/03/07 05:50:48;;;;;;;;;;;-0.50;99.90;;;;;;5073077;28;20345;-62
2022/03/07 05:53:13;;;;;;;;;;;-0.50;99.90;;;;;;5073228;28;19925;-61
2022/03/07 05:55:40;;;;;;;;;;;-0.50;99.90;;;;;;5074843;28;19936;-61
2022/03/07 05:58:06;;;;;;;;;;;-0.20;99.90;;;;;;5074128;28;19979;-61
2022/03/07 06:00:31;;;;;;;;;;;-0.40;99.90;;;;;;5074127;28;19968;-60
2022/03/07 06:02:57;;;;;;;;;;;-0.40;99.90;;;;;;5056457;28;19924;-61
2022/03/07 06:05:22;;;;;;;;;;;-0.40;99.90;;;;;;5073749;28;19925;-62
2022/03/07 06:07:48;;;;;;;;;;;-0.40;99.90;;;;;;5072770;28;19931;-61
2022/03/07 06:10:14;;;;;;;;;;;-0.30;99.90;;;;;;5072907;28;19925;-61
2022/03/07 06:12:39;;;;;;;;;;;0.10;99.90;;;;;;5073058;28;19947;-61
2022/03/07 06:15:06;;;;;;;;;;;-0.30;99.90;;;;;;5073864;28;19928;-61
2022/03/07 06:17:32;;;;;;;;;;;-0.40;99.90;;;;;;5072943;28;20385;-60
2022/03/07 06:19:57;;;;;;;;;;;-0.40;99.90;;;;;;5073578;28;19924;-61
2022/03/07 06:22:23;;;;;;;;;;;-0.40;99.90;;;;;;5072630;28;19924;-60
2022/03/07 06:24:49;;;;;;;;;;;-0.30;99.90;;;;;;5073650;28;20391;-62
2022/03/07 06:27:14;;;;;;;;;;;-0.30;99.90;;;;;;5073854;28;20298;-61
2022/03/07 06:29:40;;;;;;;;;;;-0.30;99.90;;;;;;5073602;28;19924;-61
2022/03/07 06:32:06;;;;;;;;;;;-0.30;99.90;;;;;;5072522;28;20383;-61
2022/03/07 06:34:33;;;;;;;;;;;-0.20;99.90;;;;;;5073619;28;19992;-61
2022/03/07 06:37:00;;;;;;;;;;;-0.20;99.90;;;;;;5073350;28;19975;-61
2022/03/07 06:39:27;;;;;;;;;;;-0.20;99.90;;;;;;5072201;28;20455;-62
2022/03/07 06:41:55;;;;;;;;;;;0.10;99.90;;;;;;5073160;28;19932;-61
2022/03/07 06:44:21;;;;;;;;;;;-0.10;99.90;;;;;;5073564;28;19971;-61
2022/03/07 06:46:47;;;;;;;;;;;-0.10;99.90;;;;;;5072179;28;19932;-64
2022/03/07 06:49:13;;;;;;;;;;;-0.10;99.90;;;;;;5071183;28;19925;-64
2022/03/07 06:51:38;;;;;;;;;;;0.20;99.90;;;;;;5073288;28;20263;-60
2022/03/07 06:54:04;;;;;;;;;;;0.10;99.90;;;;;;5072950;28;19924;-61
2022/03/07 06:56:30;;;;;;;;;;;0.10;99.90;;;;;;5071778;28;19943;-61
2022/03/07 06:58:55;;;;;;;;;;;0.10;99.90;;;;;;5071675;28;19928;-61
2022/03/07 07:01:21;;;;;;;;;;;0.20;99.90;;;;;;5073171;28;19924;-60
2022/03/07 07:03:47;;;;;;;;;;;0.20;99.90;;;;;;5072098;28;19924;-62
2022/03/07 07:06:13;;;;;;;;;;;0.30;99.90;;;;;;5072345;28;19927;-61
2022/03/07 07:08:38;;;;;;;;;;;0.30;99.90;;;;;;5072629;28;19982;-61
2022/03/07 07:11:04;;;;;;;;;;;0.40;99.90;;;;;;5071449;28;19924;-61
2022/03/07 07:13:30;;;;;;;;;;;0.50;99.90;;;;;;5072898;28;19932;-62
2022/03/07 07:15:55;;;;;;;;;;;0.70;99.90;;;;;;5072037;28;19925;-62
2022/03/07 07:18:22;;;;;;;;;;;0.90;99.90;;;;;;5072763;28;20033;-61
2022/03/07 07:20:50;;;;;;;;;;;1.60;99.90;;;;;;5072575;28;20309;-61
2022/03/07 07:23:15;;;;;;;;;;;2.70;99.90;;;;;;5072342;28;19974;-61
2022/03/07 07:25:41;;;;;;;;;;;3.70;99.90;;;;;;5071063;28;20378;-62
2022/03/07 07:28:06;;;;;;;;;;;4.80;99.90;;;;;;5072267;28;19929;-61
2022/03/07 07:30:32;;;;;;;;;;;5.50;99.90;;;;;;5072863;28;19925;-62
2022/03/07 07:32:57;;;;;;;;;;;6.20;99.90;;;;;;5071195;28;19925;-63
2022/03/07 07:35:23;;;;;;;;;;;6.80;99.90;;;;;;5071246;28;20011;-62
2022/03/07 07:37:49;;;;;;;;;;;7.60;99.90;;;;;;5070905;28;19931;-62
2022/03/07 07:40:14;;;;;;;;;;;8.20;99.90;;;;;;5071198;28;19924;-62
2022/03/07 07:42:40;;;;;;;;;;;8.90;99.90;;;;;;5072484;28;19925;-61
2022/03/07 07:45:06;;;;;;;;;;;9.50;99.90;;;;;;5071906;28;19929;-59
2022/03/07 07:47:31;;;;;;;;;;;10.00;99.90;;;;;;5071678;28;19931;-61
2022/03/07 07:49:57;;;;;;;;;;;10.50;99.90;;;;;;5071857;28;20404;-63
2022/03/07 07:52:22;;;;;;;;;;;11.10;99.90;;;;;;5070969;28;20408;-63
2022/03/07 07:54:48;;;;;;;;;;;11.60;99.90;;;;;;5054340;28;20273;-63
2022/03/07 07:57:14;;;;;;;;;;;12.20;99.90;;;;;;5071680;28;19925;-62
2022/03/07 07:59:39;;;;;;;;;;;12.70;99.90;;;;;;5071895;28;20341;-62
2022/03/07 08:02:05;;;;;;;;;;;13.10;98.90;;;;;;5071205;28;19981;-62
2022/03/07 08:04:31;;;;;;;;;;;13.40;98.00;;;;;;5071975;28;20274;-65
2022/03/07 08:06:56;;;;;;;;;;;13.60;96.80;;;;;;5071863;28;19924;-63
2022/03/07 08:09:22;;;;;;;;;;;13.80;95.70;;;;;;5071640;28;20328;-63
2022/03/07 08:11:47;;;;;;;;;;;14.10;94.90;;;;;;5071931;28;19931;-62
2022/03/07 08:14:13;;;;;;;;;;;14.20;94.30;;;;;;5070316;28;19929;-63
2022/03/07 08:16:39;;;;;;;;;;;14.40;93.50;;;;;;5071971;28;19931;-63
2022/03/07 08:19:04;;;;;;;;;;;14.40;99.90;;;;;;5071434;28;19931;-63
2022/03/07 08:21:30;;;;;;;;;;;14.30;99.90;;;;;;5071533;28;20015;-65
2022/03/07 08:23:55;;;;;;;;;;;14.30;98.90;;;;;;5070547;28;19990;-63
2022/03/07 08:26:22;;;;;;;;;;;14.30;99.70;;;;;;5070437;28;19925;-64
2022/03/07 08:28:48;;;;;;;;;;;14.50;99.90;;;;;;5071601;28;19954;-63
2022/03/07 08:31:13;;;;;;;;;;;14.80;99.90;;;;;;5070089;28;19928;-64
2022/03/07 08:33:39;;;;;;;;;;;15.00;99.10;;;;;;5053802;28;19968;-62
2022/03/07 08:36:05;;;;;;;;;;;15.20;99.60;;;;;;5071420;28;19929;-62
2022/03/07 08:38:31;;;;;;;;;;;15.40;96.20;;;;;;5071639;28;20023;-63
2022/03/07 08:40:57;;;;;;;;;;;15.60;98.70;;;;;;5071541;28;19924;-64
2022/03/07 08:43:23;;;;;;;;;;;15.80;94.10;;;;;;5053649;28;19924;-63
2022/03/07 08:45:48;;;;;;;;;;;15.90;98.20;;;;;;5071755;28;19967;-62
2022/03/07 08:48:14;;;;;;;;;;;16.00;96.20;;;;;;5070210;28;19925;-63
2022/03/07 08:50:40;;;;;;;;;;;16.10;93.50;;;;;;5070369;28;19924;-63
2022/03/07 08:53:06;;;;;;;;;;;16.30;91.40;;;;;;5053589;28;19928;-64
2022/03/07 08:55:31;;;;;;;;;;;16.50;90.10;;;;;;5071435;28;19975;-61
2022/03/07 08:57:57;;;;;;;;;;;16.60;89.50;;;;;;5070430;28;19931;-62
2022/03/07 09:00:23;;;;;;;;;;;16.80;92.60;;;;;;5086826;28;20168;-62
2022/03/07 09:02:48;;;;;;;;;;;16.90;90.20;;;;;;5071446;28;19947;-62
2022/03/07 09:05:14;;;;;;;;;;;17.20;86.50;;;;;;5069423;28;19970;-64
2022/03/07 09:07:39;;;;;;;;;;;17.30;84.00;;;;;;5071207;28;20390;-63
2022/03/07 09:10:05;;;;;;;;;;;17.30;83.00;;;;;;5071120;28;19929;-64
2022/03/07 09:12:31;;;;;;;;;;;17.50;81.80;;;;;;5071944;28;19924;-63
2022/03/07 09:14:57;;;;;;;;;;;17.60;80.20;;;;;;5057490;28;19950;-62
2022/03/07 09:17:23;;;;;;;;;;;17.40;80.40;;;;;;5074896;28;19947;-63
2022/03/07 09:19:49;;;;;;;;;;;16.50;82.70;;;;;;5075139;28;19924;-64
2022/03/07 09:22:15;;;;;;;;;;;15.70;88.80;;;;;;5074544;28;19939;-63
2022/03/07 09:24:40;;;;;;;;;;;14.80;89.00;;;;;;5074049;28;20030;-62
2022/03/07 09:27:06;;;;;;;;;;;13.90;91.30;;;;;;5074981;28;20369;-63
2022/03/07 09:29:31;;;;;;;;;;;13.10;93.40;;;;;;5074605;28;19924;-62
2022/03/07 09:31:57;;;;;;;;;;;12.10;96.60;;;;;;5074787;28;20119;-61
2022/03/07 09:34:23;;;;;;;;;;;11.20;99.90;;;;;;5073121;28;20297;-63
2022/03/07 09:36:48;;;;;;;;;;;10.50;99.90;;;;;;5073685;28;20000;-63
2022/03/07 09:39:14;;;;;;;;;;;10.10;99.90;;;;;;5074514;28;20015;-63
2022/03/07 09:41:42;;;;;;;;;;;10.00;99.90;;;;;;5074722;28;19924;-63
2022/03/07 09:44:09;;;;;;;;;;;10.20;99.90;;;;;;5074675;28;19932;-63
2022/03/07 09:46:34;;;;;;;;;;;10.30;99.90;;;;;;5074134;28;19950;-63
2022/03/07 09:49:00;;;;;;;;;;;10.40;99.90;;;;;;5074084;28;19929;-63
2022/03/07 09:51:25;;;;;;;;;;;10.30;99.90;;;;;;5074120;28;19928;-65
2022/03/07 09:53:51;;;;;;;;;;;10.20;99.90;;;;;;5073044;28;20433;-63
2022/03/07 09:56:16;;;;;;;;;;;9.90;99.90;;;;;;5073367;28;19924;-65
2022/03/07 09:58:42;;;;;;;;;;;9.50;99.90;;;;;;5073414;28;19975;-62
2022/03/07 10:01:16;;;;;;;;;;;9.50;99.90;;;;;;5074222;28;20374;-62
2022/03/07 10:03:42;;;;;;;;;;;9.40;99.90;;;;;;5074057;28;19932;-63
2022/03/07 10:06:14;;;;;;;;;;;9.30;99.90;;;;;;5073869;28;19924;-63
2022/03/07 10:08:49;;;;;;;;;;;9.20;99.90;;;;;;5074005;28;19925;-63
2022/03/07 10:11:15;;;;;;;;;;;9.40;99.90;;;;;;5072932;28;19993;-62
2022/03/07 10:13:48;;;;;;;;;;;9.60;99.90;;;;;;5074161;28;20007;-63
2022/03/07 10:16:14;;;;;;;;;;;9.30;99.90;;;;;;5072990;28;19924;-69
2022/03/07 10:18:47;;;;;;;;;;;9.00;99.90;;;;;;5074075;28;20050;-62
2022/03/07 10:21:19;;;;;;;;;;;8.80;99.90;;;;;;5073943;28;19924;-62
2022/03/07 10:23:49;;;;;;;;;;;8.70;99.90;;;;;;5072194;28;19928;-60
2022/03/07 10:26:15;;;;;;;;;;;8.70;99.90;;;;;;5073728;28;20015;-69
2022/03/07 10:28:41;;;;;;;;;;;8.70;99.90;;;;;;5073235;28;20330;-61
2022/03/07 10:31:17;;;;;;;;;;;8.80;99.90;;;;;;5073499;28;20029;-61
2022/03/07 10:33:42;;;;;;;;;;;8.90;99.90;;;;;;5073269;28;19924;-64
2022/03/07 10:36:08;;;;;;;;;;;9.00;99.90;;;;;;5073309;28;19927;-61
2022/03/07 10:38:33;;;;;;;;;;;9.00;99.90;;;;;;5072536;28;19920;-61
2022/03/07 10:40:59;;;;;;;;;;;9.10;99.90;;;;;;5073305;28;19971;-61
2022/03/07 10:43:25;;;;;;;;;;;9.20;99.90;;;;;;5055239;28;19929;-61
2022/03/07 10:45:52;;;;;;;;;;;9.30;99.90;;;;;;5073303;28;20374;-62
2022/03/07 10:48:18;;;;;;;;;;;9.20;99.90;;;;;;5073618;28;20011;-62
2022/03/07 10:50:48;;;;;;;;;;;9.40;99.90;;;;;;5072876;28;19964;-61
2022/03/07 10:53:14;;;;;;;;;;;9.50;99.90;;;;;;5072650;28;19974;-61
2022/03/07 10:55:40;;;;;;;;;;;9.90;99.90;;;;;;5070779;28;19925;-61
2022/03/07 10:58:10;;;;;;;;;;;10.10;99.90;;;;;;5072623;28;20443;-63
2022/03/07 11:00:52;;;;;;;;;;;10.30;99.90;;;;;;5072133;28;19924;-62
2022/03/07 11:03:19;;;;;;;;;;;10.10;99.90;;;;;;5071715;28;19925;-60
2022/03/07 11:05:45;;;;;;;;;;;10.10;99.90;;;;;;5072012;28;19928;-61
2022/03/07 11:08:11;;;;;;;;;;;10.00;99.90;;;;;;5071811;28;19925;-60
2022/03/07 11:10:37;;;;;;;;;;;9.90;99.90;;;;;;5071665;28;19932;-60
2022/03/07 11:13:02;;;;;;;;;;;10.00;99.90;;;;;;5068988;28;19940;-60
2022/03/07 11:15:28;;;;;;;;;;;9.90;99.90;;;;;;5071167;28;19929;-60
2022/03/07 11:17:54;;;;;;;;;;;9.90;99.90;;;;;;5070532;28;20446;-62
2022/03/07 11:20:20;;;;;;;;;;;9.90;99.90;;;;;;5070494;28;19925;-60
2022/03/07 11:22:45;;;;;;;;;;;9.80;99.90;;;;;;5071413;28;20330;-60
2022/03/07 11:25:15;;;;;;;;;;;9.80;99.90;;;;;;5072445;28;19931;-60
2022/03/07 11:27:41;;;;;;;;;;;9.90;99.90;;;;;;5072617;28;19946;-61
2022/03/07 11:30:17;;;;;;;;;;;10.10;99.90;;;;;;5072460;28;20412;-60
2022/03/07 11:32:44;;;;;;;;;;;10.20;99.90;;;;;;5070235;28;20384;-60
2022/03/07 11:35:11;;;;;;;;;;;10.30;99.90;;;;;;5070097;28;19932;-61
2022/03/07 11:37:36;;;;;;;;;;;10.40;99.90;;;;;;5071907;28;20299;-61
2022/03/07 11:40:14;;;;;;;;;;;10.30;99.90;;;;;;5072504;28;19931;-61
2022/03/07 11:42:39;;;;;;;;;;;10.20;99.90;;;;;;5071111;28;20011;-64
2022/03/07 11:45:09;;;;;;;;;;;10.10;99.90;;;;;;5071916;28;20563;-61
2022/03/07 11:47:39;;;;;;;;;;;10.00;99.90;;;;;;5053861;28;19928;-61
2022/03/07 11:50:05;;;;;;;;;;;9.90;99.90;;;;;;5072261;28;19971;-60
2022/03/07 11:52:30;;;;;;;;;;;9.90;99.90;;;;;;5071498;28;19928;-60
2022/03/07 11:54:57;;;;;;;;;;;10.00;99.90;;;;;;5070659;28;19924;-61
2022/03/07 11:57:37;;;;;;;;;;;9.90;99.90;;;;;;5072472;28;19994;-62
2022/03/07 12:00:18;;;;;;;;;;;9.80;99.90;;;;;;5070822;28;19929;-62
2022/03/07 12:02:45;;;;;;;;;;;9.70;99.90;;;;;;5053883;28;20019;-61
2022/03/07 12:05:19;;;;;;;;;;;9.70;99.90;;;;;;5071851;28;19931;-62
2022/03/07 12:07:45;;;;;;;;;;;9.60;99.90;;;;;;5069735;28;19928;-61
2022/03/07 12:10:11;;;;;;;;;;;9.60;99.90;;;;;;5070971;28;20271;-61
2022/03/07 12:12:36;;;;;;;;;;;9.50;99.90;;;;;;5071394;28;19925;-61
2022/03/07 12:15:09;;;;;;;;;;;9.50;99.90;;;;;;5071750;28;19973;-60
2022/03/07 12:17:35;;;;;;;;;;;9.40;99.90;;;;;;5070173;28;19924;-60
2022/03/07 12:20:00;;;;;;;;;;;9.30;99.70;;;;;;5070761;28;19944;-63
2022/03/07 12:22:28;;;;;;;;;;;9.30;98.40;;;;;;5054215;28;19928;-60
2022/03/07 12:24:56;;;;;;;;;;;9.30;99.10;;;;;;5070163;28;20385;-62
2022/03/07 12:27:22;;;;;;;;;;;9.50;99.90;;;;;;5071543;28;20027;-61
2022/03/07 12:29:49;;;;;;;;;;;9.60;99.40;;;;;;5071505;28;20378;-60
2022/03/07 12:32:15;;;;;;;;;;;9.70;99.90;;;;;;5071466;28;19929;-61
2022/03/07 12:34:41;;;;;;;;;;;9.80;99.90;;;;;;5071330;28;20384;-61
2022/03/07 12:37:08;;;;;;;;;;;9.90;99.50;;;;;;5071933;28;19925;-60
2022/03/07 12:39:46;;;;;;;;;;;9.80;99.40;;;;;;5071514;28;19931;-66
2022/03/07 12:42:12;;;;;;;;;;;9.70;99.10;;;;;;5071502;28;20382;-59
2022/03/07 12:44:38;;;;;;;;;;;9.70;98.00;;;;;;5071521;28;20023;-60
2022/03/07 12:47:04;;;;;;;;;;;9.60;99.00;;;;;;5071811;28;19925;-61
2022/03/07 12:49:30;;;;;;;;;;;9.60;99.30;;;;;;5075126;28;20407;-62
2022/03/07 12:51:56;;;;;;;;;;;9.60;99.90;;;;;;5075235;28;20052;-62
2022/03/07 12:54:28;;;;;;;;;;;9.60;99.90;;;;;;5075794;28;20282;-61
2022/03/07 12:56:54;;;;;;;;;;;9.70;99.90;;;;;;5074443;28;19931;-61
2022/03/07 12:59:23;;;;;;;;;;;9.70;99.90;;;;;;5075047;28;20022;-61
2022/03/07 13:01:50;;;;;;;;;;;9.70;99.90;;;;;;5075097;28;19963;-60
2022/03/07 13:04:20;;;;;;;;;;;9.60;99.90;;;;;;5075318;28;19924;-64
2022/03/07 13:06:48;;;;;;;;;;;9.50;99.90;;;;;;5075222;28;19929;-60
2022/03/07 13:09:15;;;;;;;;;;;9.40;99.90;;;;;;5075411;28;19924;-63
2022/03/07 13:11:43;;;;;;;;;;;9.30;99.90;;;;;;5074094;28;19929;-61
2022/03/07 13:14:16;;;;;;;;;;;9.30;99.90;;;;;;5074053;28;20018;-64
2022/03/07 13:16:42;;;;;;;;;;;9.20;99.90;;;;;;5074696;28;19925;-61
2022/03/07 13:19:10;;;;;;;;;;;9.10;99.90;;;;;;5074279;28;20159;-61
2022/03/07 13:21:37;;;;;;;;;;;8.90;99.90;;;;;;5074880;28;20328;-63
2022/03/07 13:24:04;;;;;;;;;;;8.80;99.90;;;;;;5075268;28;19928;-60
2022/03/07 13:26:30;;;;;;;;;;;8.70;99.90;;;;;;5074866;28;19925;-62
2022/03/07 13:29:07;;;;;;;;;;;8.80;99.90;;;;;;5074573;28;20427;-60
2022/03/07 13:31:47;;;;;;;;;;;8.90;99.50;;;;;;5075241;28;19931;-61
2022/03/07 13:34:14;;;;;;;;;;;9.10;99.90;;;;;;5074908;28;19983;-61
2022/03/07 13:36:40;;;;;;;;;;;9.10;99.20;;;;;;5074739;28;19967;-60
2022/03/07 13:39:17;;;;;;;;;;;9.10;99.40;;;;;;5075029;28;20015;-61
2022/03/07 13:41:50;;;;;;;;;;;9.10;98.50;;;;;;5073451;28;19924;-60
2022/03/07 13:44:15;;;;;;;;;;;9.10;98.10;;;;;;5074948;28;19929;-61
2022/03/07 13:46:50;;;;;;;;;;;9.10;98.30;;;;;;5074549;28;19925;-61
2022/03/07 13:49:16;;;;;;;;;;;9.10;97.80;;;;;;5057265;28;19925;-61
2022/03/07 13:51:41;;;;;;;;;;;9.10;97.20;;;;;;5074007;28;20332;-61
2022/03/07 13:54:07;;;;;;;;;;;9.10;97.50;;;;;;5074543;28;19925;-61
2022/03/07 13:56:33;;;;;;;;;;;9.10;97.60;;;;;;5074547;28;19977;-61
2022/03/07 13:58:58;;;;;;;;;;;9.10;97.30;;;;;;5073505;28;19925;-61
2022/03/07 14:01:28;;;;;;;;;;;9.10;97.30;;;;;;5073087;28;19936;-63
2022/03/07 14:03:54;;;;;;;;;;;9.00;95.60;;;;;;5073638;28;19931;-62
2022/03/07 14:06:19;;;;;;;;;;;9.10;94.80;;;;;;5073403;28;19924;-60
2022/03/07 14:08:45;;;;;;;;;;;9.00;93.50;;;;;;5072958;28;20377;-60
2022/03/07 14:11:13;;;;;;;;;;;9.00;94.20;;;;;;5073004;28;20372;-61
2022/03/07 14:13:39;;;;;;;;;;;8.90;93.90;;;;;;5074205;28;19925;-61
2022/03/07 14:16:05;;;;;;;;;;;9.00;93.60;;;;;;5072599;28;20014;-60
2022/03/07 14:18:31;;;;;;;;;;;9.00;92.40;;;;;;5074178;28;20010;-61
2022/03/07 14:20:56;;;;;;;;;;;9.00;91.70;;;;;;5072661;28;20413;-61